createdAt,value
2018-04-20T00:00:51.960Z,79.06
2018-04-20T00:01:52.146Z,79.54
2018-04-20T00:02:52.319Z,79.73
2018-04-20T00:03:52.500Z,79.64
2018-04-20T00:04:52.689Z,79.93
2018-04-20T00:05:52.864Z,79.83
2018-04-20T00:06:53.043Z,79.83
2018-04-20T00:07:53.216Z,80.02
2018-04-20T00:08:53.401Z,79.54
2018-04-20T00:09:53.585Z,80.02
2018-04-20T00:10:53.768Z,79.83
2018-04-20T00:11:53.961Z,79.69
2018-04-20T00:12:54.130Z,79.64
2018-04-20T00:13:54.317Z,79.64
2018-04-20T00:14:54.499Z,79.41
2018-04-20T00:15:54.695Z,79.60
2018-04-20T00:16:54.876Z,79.93
2018-04-20T00:17:55.061Z,80.11
2018-04-20T00:18:55.229Z,80.65
2018-04-20T00:19:55.414Z,80.07
2018-04-20T00:20:55.598Z,80.17
2018-04-20T00:21:55.781Z,80.36
2018-04-20T00:22:55.975Z,80.27
2018-04-20T00:23:56.154Z,80.55
2018-04-20T00:24:56.331Z,80.65
2018-04-20T00:25:56.515Z,80.65
2018-04-20T00:26:56.710Z,81.03
2018-04-20T00:28:57.069Z,80.84
2018-04-20T00:29:57.256Z,81.32
2018-04-20T00:30:57.431Z,81.32
2018-04-20T00:31:57.614Z,81.32
2018-04-20T00:32:57.786Z,81.13
2018-04-20T00:33:57.978Z,81.79
2018-04-20T00:34:58.167Z,81.79
2018-04-20T00:35:58.337Z,81.76
2018-04-20T00:36:58.523Z,81.89
2018-04-20T00:37:58.703Z,81.51
2018-04-20T00:38:58.897Z,81.51
2018-04-20T00:39:59.079Z,82.23
2018-04-20T00:40:59.249Z,82.14
2018-04-20T00:41:59.437Z,82.52
2018-04-20T00:42:59.621Z,82.61
2018-04-20T00:43:59.796Z,83.09
2018-04-20T00:44:59.984Z,82.81
2018-04-20T00:46:00.162Z,83.47
2018-04-20T00:47:00.349Z,83.00
2018-04-20T00:48:00.533Z,82.90
2018-04-20T00:49:00.708Z,83.09
2018-04-20T00:50:00.893Z,82.71
2018-04-20T00:51:01.078Z,82.52
2018-04-20T00:52:01.499Z,82.71
2018-04-20T00:53:01.440Z,82.42
2018-04-20T00:54:01.624Z,82.42
2018-04-20T00:55:01.814Z,82.52
2018-04-20T00:56:01.995Z,81.85
2018-04-20T00:57:02.181Z,82.61
2018-04-20T00:58:02.359Z,82.81
2018-04-20T00:59:02.539Z,82.81
2018-04-20T01:00:02.729Z,83.09
2018-04-20T01:01:02.907Z,83.09
2018-04-20T01:02:03.145Z,82.81
2018-04-20T01:03:03.272Z,83.18
2018-04-20T01:04:03.452Z,83.00
2018-04-20T01:05:03.631Z,82.52
2018-04-20T01:06:03.815Z,83.00
2018-04-20T01:07:04.001Z,82.61
2018-04-20T01:08:04.187Z,81.95
2018-04-20T01:09:04.359Z,82.04
2018-04-20T01:10:04.536Z,82.52
2018-04-20T01:11:04.715Z,82.76
2018-04-20T01:13:05.076Z,83.72
2018-04-20T01:14:05.259Z,83.24
2018-04-20T01:15:05.441Z,83.53
2018-04-20T01:16:05.626Z,83.34
2018-04-20T01:17:05.810Z,83.62
2018-04-20T01:18:05.994Z,83.72
2018-04-20T01:19:06.184Z,83.34
2018-04-20T01:20:06.354Z,83.14
2018-04-20T01:21:06.536Z,82.67
2018-04-20T01:22:06.719Z,82.90
2018-04-20T01:23:06.904Z,82.71
2018-04-20T01:24:07.092Z,83.00
2018-04-20T01:25:07.266Z,82.32
2018-04-20T01:26:07.775Z,82.32
2018-04-20T01:27:07.661Z,82.23
2018-04-20T01:28:07.842Z,82.29
2018-04-20T01:29:08.025Z,82.86
2018-04-20T01:30:08.202Z,82.76
2018-04-20T01:31:08.391Z,83.14
2018-04-20T01:32:08.569Z,83.62
2018-04-20T01:33:09.063Z,83.43
2018-04-20T01:34:08.941Z,83.53
2018-04-20T01:35:09.135Z,83.62
2018-04-20T01:37:09.474Z,84.10
2018-04-20T01:38:09.659Z,84.29
2018-04-20T01:39:09.844Z,84.20
2018-04-20T01:40:10.037Z,83.43
2018-04-20T01:41:10.207Z,84.20
2018-04-20T01:42:10.389Z,83.72
2018-04-20T01:43:10.574Z,84.39
2018-04-20T01:44:10.752Z,84.48
2018-04-20T01:45:10.951Z,84.20
2018-04-20T01:46:11.129Z,84.96
2018-04-20T01:47:11.312Z,84.29
2018-04-20T01:48:11.491Z,83.81
2018-04-20T01:49:11.675Z,84.10
2018-04-20T01:50:11.851Z,84.48
2018-04-20T01:51:12.035Z,84.29
2018-04-20T01:52:12.210Z,84.48
2018-04-20T01:53:12.391Z,84.67
2018-04-20T01:54:12.584Z,84.72
2018-04-20T01:55:12.752Z,84.77
2018-04-20T01:56:12.941Z,84.77
2018-04-20T01:57:13.121Z,85.11
2018-04-20T01:58:13.284Z,85.01
2018-04-20T01:59:13.465Z,84.77
2018-04-20T02:00:13.652Z,84.96
2018-04-20T02:01:13.816Z,85.01
2018-04-20T02:02:14.006Z,85.01
2018-04-20T02:03:14.179Z,85.49
2018-04-20T02:04:14.362Z,84.58
2018-04-20T02:05:14.547Z,84.86
2018-04-20T02:06:14.723Z,84.29
2018-04-20T02:07:15.241Z,84.29
2018-04-20T02:08:15.116Z,84.53
2018-04-20T02:09:15.268Z,84.63
2018-04-20T02:10:15.453Z,84.72
2018-04-20T02:11:15.640Z,84.72
2018-04-20T02:12:15.822Z,84.44
2018-04-20T02:13:16.032Z,84.72
2018-04-20T02:14:16.187Z,84.63
2018-04-20T02:15:16.372Z,84.92
2018-04-20T02:16:16.553Z,84.63
2018-04-20T02:18:16.908Z,84.25
2018-04-20T02:19:17.092Z,84.29
2018-04-20T02:20:17.273Z,84.34
2018-04-20T02:21:17.460Z,84.92
2018-04-20T02:22:17.650Z,85.30
2018-04-20T02:23:17.821Z,85.87
2018-04-20T02:24:17.996Z,85.49
2018-04-20T02:25:18.175Z,85.87
2018-04-20T02:26:18.360Z,85.68
2018-04-20T02:27:18.532Z,85.77
2018-04-20T02:28:18.715Z,85.39
2018-04-20T02:29:18.893Z,85.68
2018-04-20T02:30:19.079Z,85.39
2018-04-20T02:31:19.263Z,85.30
2018-04-20T02:32:19.429Z,84.53
2018-04-20T02:33:19.609Z,83.96
2018-04-20T02:34:19.798Z,84.34
2018-04-20T02:35:19.973Z,83.87
2018-04-20T02:36:20.202Z,83.96
2018-04-20T02:37:20.336Z,84.25
2018-04-20T02:38:20.509Z,84.25
2018-04-20T02:39:20.689Z,84.72
2018-04-20T02:40:20.877Z,84.92
2018-04-20T02:41:21.060Z,84.63
2018-04-20T02:42:21.257Z,85.21
2018-04-20T02:43:21.433Z,85.49
2018-04-20T02:44:21.606Z,85.93
2018-04-20T02:45:21.800Z,86.02
2018-04-20T02:46:21.976Z,86.49
2018-04-20T02:47:22.153Z,86.49
2018-04-20T02:48:22.319Z,86.69
2018-04-20T02:49:22.503Z,86.49
2018-04-20T02:50:22.679Z,86.88
2018-04-20T02:51:22.864Z,86.30
2018-04-20T02:52:23.041Z,86.78
2018-04-20T02:53:23.226Z,86.40
2018-04-20T02:54:23.415Z,86.30
2018-04-20T02:55:23.592Z,87.07
2018-04-20T02:56:23.776Z,86.69
2018-04-20T02:58:24.139Z,86.78
2018-04-20T02:59:24.331Z,86.69
2018-04-20T03:00:24.515Z,86.49
2018-04-20T03:01:24.700Z,86.69
2018-04-20T03:02:24.879Z,87.07
2018-04-20T03:03:25.055Z,86.69
2018-04-20T03:04:25.241Z,86.78
2018-04-20T03:05:25.418Z,86.69
2018-04-20T03:06:25.613Z,86.49
2018-04-20T03:07:25.795Z,86.11
2018-04-20T03:08:25.969Z,86.02
2018-04-20T03:09:26.157Z,86.21
2018-04-20T03:10:26.336Z,86.21
2018-04-20T03:11:26.534Z,86.02
2018-04-20T03:12:26.704Z,85.93
2018-04-20T03:13:26.891Z,85.93
2018-04-20T03:14:27.070Z,86.98
2018-04-20T03:15:27.257Z,86.59
2018-04-20T03:16:27.435Z,87.16
2018-04-20T03:17:27.617Z,87.83
2018-04-20T03:18:27.796Z,87.54
2018-04-20T03:19:27.985Z,88.40
2018-04-20T03:20:28.173Z,87.35
2018-04-20T03:21:28.343Z,87.54
2018-04-20T03:22:28.523Z,87.45
2018-04-20T03:23:28.708Z,87.64
2018-04-20T03:24:28.891Z,87.54
2018-04-20T03:25:29.076Z,87.64
2018-04-20T03:26:29.260Z,87.26
2018-04-20T03:27:29.437Z,86.78
2018-04-20T03:28:29.628Z,87.07
2018-04-20T03:29:29.800Z,86.59
2018-04-20T03:30:29.986Z,86.78
2018-04-20T03:31:30.169Z,86.98
2018-04-20T03:32:30.347Z,87.07
2018-04-20T03:33:30.529Z,86.88
2018-04-20T03:34:30.705Z,86.88
2018-04-20T03:35:30.900Z,86.78
2018-04-20T03:36:31.071Z,86.88
2018-04-20T03:37:31.248Z,87.45
2018-04-20T03:38:31.431Z,86.59
2018-04-20T03:39:31.612Z,86.98
2018-04-20T03:40:31.793Z,86.78
2018-04-20T03:41:31.969Z,86.83
2018-04-20T03:42:32.154Z,87.40
2018-04-20T03:43:32.341Z,87.40
2018-04-20T03:44:32.529Z,87.79
2018-04-20T03:45:32.727Z,88.26
2018-04-20T03:46:32.911Z,87.79
2018-04-20T03:47:33.091Z,88.07
2018-04-20T03:48:33.274Z,87.98
2018-04-20T03:49:33.457Z,87.79
2018-04-20T03:50:33.635Z,87.88
2018-04-20T03:51:33.824Z,88.64
2018-04-20T03:52:34.004Z,88.17
2018-04-20T03:53:34.687Z,88.07
2018-04-20T03:54:34.353Z,88.93
2018-04-20T03:55:34.533Z,88.84
2018-04-20T03:56:34.958Z,88.93
2018-04-20T03:57:34.897Z,88.36
2018-04-20T03:58:35.083Z,88.64
2018-04-20T04:00:35.434Z,88.55
2018-04-20T04:01:35.611Z,88.74
2018-04-20T04:02:35.787Z,89.26
2018-04-20T04:03:35.966Z,90.60
2018-04-20T04:04:36.150Z,90.22
2018-04-20T04:05:36.327Z,90.12
2018-04-20T04:06:36.517Z,89.26
2018-04-20T04:07:36.707Z,89.12
2018-04-20T04:08:36.862Z,89.50
2018-04-20T04:13:09.805Z,89.55
2018-04-20T04:14:09.730Z,89.94
2018-04-20T04:15:09.869Z,89.94
2018-04-20T04:16:10.054Z,90.31
2018-04-20T04:17:10.245Z,89.65
2018-04-20T04:18:10.425Z,89.36
2018-04-20T04:19:10.599Z,89.55
2018-04-20T04:20:10.774Z,89.07
2018-04-20T04:21:10.969Z,90.50
2018-04-20T04:22:11.160Z,89.75
2018-04-20T04:23:11.340Z,89.65
2018-04-20T04:24:11.521Z,89.07
2018-04-20T04:25:11.697Z,89.26
2018-04-20T04:26:11.866Z,89.12
2018-04-20T04:27:12.060Z,88.74
2018-04-20T04:28:12.235Z,88.17
2018-04-20T04:29:12.416Z,88.26
2018-04-20T04:30:12.605Z,88.55
2018-04-20T04:31:12.776Z,87.60
2018-04-20T04:32:12.961Z,87.50
2018-04-20T04:33:13.152Z,87.31
2018-04-20T04:34:13.322Z,86.74
2018-04-20T04:35:13.504Z,87.02
2018-04-20T04:36:13.669Z,87.02
2018-04-20T04:37:13.850Z,86.93
2018-04-20T04:38:14.039Z,86.55
2018-04-20T04:39:14.215Z,87.40
2018-04-20T04:40:14.666Z,87.07
2018-04-20T04:41:14.571Z,86.98
2018-04-20T04:42:15.551Z,86.02
2018-04-20T04:43:14.984Z,87.07
2018-04-20T04:44:15.152Z,87.26
2018-04-20T04:45:15.335Z,87.98
2018-04-20T04:46:15.516Z,89.12
2018-04-20T04:47:15.711Z,89.31
2018-04-20T04:48:15.884Z,88.93
2018-04-20T04:49:16.058Z,89.12
2018-04-20T04:50:16.250Z,89.60
2018-04-20T04:51:16.424Z,89.40
2018-04-20T04:52:16.612Z,89.69
2018-04-20T04:53:16.791Z,89.69
2018-04-20T04:54:16.970Z,88.78
2018-04-20T04:55:17.153Z,87.45
2018-04-20T04:56:17.335Z,85.58
2018-04-20T04:57:17.520Z,83.87
2018-04-20T04:58:17.702Z,82.72
2018-04-20T04:59:17.878Z,81.52
2018-04-20T05:00:18.115Z,80.90
2018-04-20T05:01:18.264Z,79.17
2018-04-20T05:02:18.421Z,79.17
2018-04-20T05:03:18.600Z,78.31
2018-04-20T05:04:19.028Z,77.65
2018-04-20T05:05:18.968Z,76.92
2018-04-20T05:06:19.149Z,76.25
2018-04-20T05:07:19.342Z,76.06
2018-04-20T05:08:19.529Z,75.68
2018-04-20T05:09:19.712Z,75.52
2018-04-20T05:10:19.894Z,75.34
2018-04-20T05:11:20.384Z,74.66
2018-04-20T05:12:20.263Z,73.52
2018-04-20T05:13:20.446Z,73.71
2018-04-20T05:14:20.627Z,73.90
2018-04-20T05:15:20.811Z,73.80
2018-04-20T05:16:20.995Z,74.48
2018-04-20T05:17:21.169Z,75.24
2018-04-20T05:18:21.359Z,75.49
2018-04-20T05:19:21.553Z,75.68
2018-04-20T05:20:21.729Z,76.16
2018-04-20T05:21:21.919Z,76.82
2018-04-20T05:22:22.994Z,76.82
2018-04-20T05:23:23.007Z,76.79
2018-04-20T05:24:22.441Z,77.17
2018-04-20T05:27:15.178Z,76.45
2018-04-20T05:28:15.079Z,75.91
2018-04-20T05:29:15.268Z,75.62
2018-04-20T05:30:15.456Z,74.09
2018-04-20T05:31:15.632Z,73.75
2018-04-20T05:32:15.813Z,72.41
2018-04-20T05:33:15.990Z,71.77
2018-04-20T05:34:16.175Z,71.48
2018-04-20T05:35:16.351Z,71.20
2018-04-20T05:36:16.536Z,70.15
2018-04-20T05:37:16.728Z,70.28
2018-04-20T05:38:16.901Z,70.53
2018-04-20T05:39:17.092Z,71.39
2018-04-20T05:40:17.270Z,71.14
2018-04-20T05:41:17.450Z,70.72
2018-04-20T05:42:17.635Z,70.95
2018-04-20T05:43:17.822Z,70.85
2018-04-20T05:44:18.013Z,71.14
2018-04-20T05:45:18.191Z,71.23
2018-04-20T05:46:18.368Z,71.14
2018-04-20T05:47:18.556Z,70.76
2018-04-20T05:48:18.733Z,70.28
2018-04-20T05:49:18.929Z,69.70
2018-04-20T05:50:19.109Z,69.51
2018-04-20T05:51:19.558Z,69.13
2018-04-20T05:52:19.482Z,69.35
2018-04-20T05:53:19.673Z,69.17
2018-04-20T05:54:19.860Z,69.07
2018-04-20T05:55:20.044Z,68.49
2018-04-20T05:56:20.231Z,68.68
2018-04-20T05:57:20.412Z,67.54
2018-04-20T05:58:20.597Z,67.38
2018-04-20T05:59:20.782Z,66.58
2018-04-20T06:00:20.967Z,67.18
2018-04-20T06:01:21.496Z,66.64
2018-04-20T06:02:21.342Z,66.03
2018-04-20T06:03:21.596Z,67.82
2018-04-20T06:04:21.687Z,67.63
2018-04-20T06:05:21.867Z,67.38
2018-04-20T06:06:22.056Z,66.51
2018-04-20T06:07:22.257Z,66.32
2018-04-20T06:08:22.440Z,66.99
2018-04-20T06:09:22.622Z,66.55
2018-04-20T06:10:22.791Z,65.97
2018-04-20T06:11:22.974Z,66.32
2018-04-20T06:12:23.158Z,66.26
2018-04-20T06:13:23.342Z,64.95
2018-04-20T06:14:23.519Z,63.79
2018-04-20T06:15:23.707Z,63.42
2018-04-20T06:16:23.888Z,63.12
2018-04-20T06:17:24.067Z,62.45
2018-04-20T06:18:24.227Z,62.45
2018-04-20T06:19:24.420Z,62.10
2018-04-20T06:20:24.590Z,62.19
2018-04-20T06:21:24.783Z,60.85
2018-04-20T06:22:24.963Z,61.43
2018-04-20T06:23:25.119Z,62.29
2018-04-20T06:24:25.332Z,61.81
2018-04-20T06:25:25.768Z,61.08
2018-04-20T06:26:25.670Z,60.69
2018-04-20T06:27:25.825Z,61.17
2018-04-20T06:28:26.024Z,61.72
2018-04-20T06:29:26.234Z,62.29
2018-04-20T06:30:26.374Z,61.46
2018-04-20T06:31:26.570Z,60.88
2018-04-20T06:32:26.721Z,61.08
2018-04-20T06:33:26.884Z,60.82
2018-04-20T06:34:27.088Z,60.43
2018-04-20T06:35:27.454Z,59.41
2018-04-20T06:36:27.406Z,59.79
2018-04-20T06:37:27.562Z,58.54
2018-04-20T06:38:27.767Z,58.64
2018-04-20T06:39:27.980Z,58.92
2018-04-20T06:40:28.145Z,58.54
2018-04-20T06:41:28.324Z,58.35
2018-04-20T06:42:28.732Z,57.70
2018-04-20T06:43:28.683Z,56.87
2018-04-20T06:44:28.863Z,57.13
2018-04-20T06:45:29.045Z,56.58
2018-04-20T06:46:29.201Z,55.65
2018-04-20T06:47:29.423Z,55.93
2018-04-20T06:48:29.607Z,55.45
2018-04-20T06:49:29.775Z,55.26
2018-04-20T06:50:29.919Z,54.78
2018-04-20T06:51:30.104Z,55.26
2018-04-20T06:52:30.284Z,55.83
2018-04-20T06:53:30.603Z,55.93
2018-04-20T06:54:30.691Z,56.12
2018-04-20T06:55:30.903Z,55.38
2018-04-20T06:56:31.050Z,55.16
2018-04-20T06:57:31.238Z,56.22
2018-04-20T06:58:31.427Z,55.74
2018-04-20T06:59:31.632Z,55.93
2018-04-20T07:00:31.821Z,55.96
2018-04-20T07:01:32.012Z,54.90
2018-04-20T07:02:32.199Z,55.43
2018-04-20T07:03:32.348Z,57.35
2018-04-20T07:04:32.564Z,56.51
2018-04-20T07:05:32.729Z,56.51
2018-04-20T07:06:33.232Z,56.51
2018-04-20T07:07:33.112Z,55.96
2018-04-20T07:08:33.293Z,56.05
2018-04-20T07:09:33.485Z,54.90
2018-04-20T07:10:33.666Z,54.52
2018-04-20T07:11:33.849Z,55.83
2018-04-20T07:12:34.061Z,55.67
2018-04-20T07:13:34.287Z,55.60
2018-04-20T07:14:34.448Z,54.83
2018-04-20T07:15:34.620Z,54.90
2018-04-20T07:16:34.794Z,56.74
2018-04-20T07:17:34.995Z,59.63
2018-04-20T07:18:35.183Z,58.05
2018-04-20T07:19:35.354Z,56.18
2018-04-20T07:20:35.523Z,55.48
2018-04-20T07:21:35.730Z,54.83
2018-04-20T07:22:35.937Z,53.80
2018-04-20T07:23:36.078Z,53.25
2018-04-20T07:24:36.245Z,53.65
2018-04-20T07:25:36.404Z,57.15
2018-04-20T07:26:36.600Z,57.92
2018-04-20T07:27:36.804Z,57.18
2018-04-20T07:28:36.929Z,56.73
2018-04-20T07:29:37.121Z,54.83
2018-04-20T07:30:37.304Z,53.61
2018-04-20T07:31:37.488Z,53.44
2018-04-20T07:32:37.651Z,52.76
2018-04-20T07:33:37.845Z,51.82
2018-04-20T07:34:38.047Z,52.31
2018-04-20T07:35:38.204Z,50.69
2018-04-20T07:36:38.358Z,50.31
2018-04-20T07:37:38.574Z,50.89
2018-04-20T07:38:48.387Z,50.59
2018-04-20T07:39:39.847Z,49.82
2018-04-20T07:40:42.459Z,49.65
2018-04-20T07:41:40.516Z,48.79
2018-04-20T07:42:39.977Z,48.11
2018-04-20T07:43:39.961Z,48.49
2018-04-20T07:44:39.905Z,47.91
2018-04-20T07:45:40.109Z,48.03
2018-04-20T07:46:40.316Z,47.94
2018-04-20T07:47:41.596Z,47.94
2018-04-20T07:48:40.638Z,48.03
2018-04-20T07:49:40.894Z,48.03
2018-04-20T07:50:41.129Z,47.38
2018-04-20T07:51:41.240Z,46.90
2018-04-20T07:52:41.404Z,46.73
2018-04-20T07:53:41.576Z,46.22
2018-04-20T07:54:41.765Z,45.57
2018-04-20T07:55:41.989Z,46.12
2018-04-20T07:56:43.141Z,46.73
2018-04-20T07:57:42.429Z,46.34
2018-04-20T07:58:42.619Z,45.57
2018-04-20T07:59:42.837Z,46.25
2018-04-20T08:00:43.003Z,46.15
2018-04-20T08:01:43.423Z,46.90
2018-04-20T08:02:43.390Z,46.80
2018-04-20T08:03:43.569Z,46.73
2018-04-20T08:04:43.780Z,46.25
2018-04-20T08:05:44.896Z,46.25
2018-04-20T08:06:44.652Z,46.39
2018-04-20T08:07:45.299Z,47.19
2018-04-20T08:08:44.769Z,47.94
2018-04-20T08:09:45.177Z,47.63
2018-04-20T08:10:45.130Z,48.23
2018-04-20T08:11:45.098Z,47.28
2018-04-20T08:12:45.336Z,46.70
2018-04-20T08:13:45.466Z,48.30
2018-04-20T08:14:45.634Z,48.42
2018-04-20T08:15:45.833Z,47.48
2018-04-20T08:16:46.037Z,47.74
2018-04-20T08:17:46.179Z,47.19
2018-04-20T08:18:50.902Z,46.34
2018-04-20T08:19:46.624Z,44.81
2018-04-20T08:20:46.741Z,44.91
2018-04-20T08:21:46.936Z,44.45
2018-04-20T08:22:47.147Z,44.84
2018-04-20T08:23:47.308Z,44.43
2018-04-20T08:24:47.477Z,44.45
2018-04-20T08:25:47.682Z,44.45
2018-04-20T08:26:48.138Z,43.89
2018-04-20T08:27:48.350Z,43.23
2018-04-20T08:28:48.349Z,42.75
2018-04-20T08:29:48.515Z,42.75
2018-04-20T08:30:48.668Z,42.09
2018-04-20T08:31:48.856Z,41.95
2018-04-20T08:32:49.083Z,43.60
2018-04-20T08:33:49.250Z,43.87
2018-04-20T08:34:49.424Z,43.58
2018-04-20T08:35:49.590Z,43.19
2018-04-20T08:36:49.869Z,44.04
2018-04-20T08:37:49.983Z,43.77
2018-04-20T08:38:50.170Z,43.09
2018-04-20T08:39:50.356Z,43.27
2018-04-20T08:40:50.875Z,44.43
2018-04-20T08:41:51.543Z,45.78
2018-04-20T08:42:50.998Z,44.35
2018-04-20T08:43:51.157Z,43.12
2018-04-20T08:44:51.343Z,42.07
2018-04-20T08:45:51.544Z,41.10
2018-04-20T08:46:51.738Z,40.44
2018-04-20T08:47:51.956Z,40.17
2018-04-20T08:48:52.104Z,39.84
2018-04-20T08:49:52.289Z,40.56
2018-04-20T08:50:52.521Z,38.52
2018-04-20T08:51:52.667Z,38.91
2018-04-20T08:52:52.830Z,38.70
2018-04-20T08:53:53.005Z,38.89
2018-04-20T08:54:53.202Z,40.40
2018-04-20T08:55:53.372Z,40.33
2018-04-20T08:56:53.570Z,40.23
2018-04-20T08:57:53.783Z,40.52
2018-04-20T08:58:53.968Z,40.89
2018-04-20T08:59:54.162Z,40.91
2018-04-20T09:00:54.388Z,41.83
2018-04-20T09:01:54.549Z,43.09
2018-04-20T09:02:54.704Z,42.71
2018-04-20T09:03:54.894Z,41.39
2018-04-20T09:04:55.112Z,41.02
2018-04-20T09:05:55.290Z,40.46
2018-04-20T09:06:55.419Z,38.73
2018-04-20T09:07:55.657Z,37.80
2018-04-20T09:08:55.852Z,37.12
2018-04-20T09:09:56.005Z,36.94
2018-04-20T09:10:56.222Z,36.67
2018-04-20T09:11:56.593Z,36.46
2018-04-20T09:12:56.564Z,37.34
2018-04-20T09:13:56.724Z,37.24
2018-04-20T09:14:56.903Z,36.67
2018-04-20T09:15:57.126Z,36.30
2018-04-20T09:16:57.324Z,35.81
2018-04-20T09:17:57.467Z,35.71
2018-04-20T09:18:57.670Z,35.93
2018-04-20T09:19:57.821Z,35.25
2018-04-20T09:20:58.005Z,35.33
2018-04-20T09:21:58.191Z,35.81
2018-04-20T09:22:58.373Z,36.02
2018-04-20T09:23:58.564Z,35.34
2018-04-20T09:24:58.752Z,35.05
2018-04-20T09:25:58.946Z,35.16
2018-04-20T09:26:59.070Z,35.61
2018-04-20T09:27:59.283Z,35.83
2018-04-20T09:28:59.512Z,36.02
2018-04-20T09:29:59.667Z,36.04
2018-04-20T09:30:59.855Z,34.79
2018-04-20T09:32:00.019Z,33.64
2018-04-20T09:33:00.234Z,34.01
2018-04-20T09:34:00.414Z,34.01
2018-04-20T09:35:00.726Z,34.89
2018-04-20T09:36:00.755Z,34.50
2018-04-20T09:37:00.953Z,33.44
2018-04-20T09:38:01.122Z,35.93
2018-04-20T09:39:01.291Z,35.23
2018-04-20T09:40:01.448Z,36.30
2018-04-20T09:41:01.718Z,37.12
2018-04-20T09:42:01.902Z,37.06
2018-04-20T09:43:02.108Z,36.41
2018-04-20T09:44:02.272Z,35.94
2018-04-20T09:45:02.441Z,35.83
2018-04-20T09:46:02.606Z,35.83
2018-04-20T09:47:02.803Z,35.25
2018-04-20T09:48:02.958Z,35.73
2018-04-20T09:49:03.180Z,35.46
2018-04-20T09:50:03.373Z,34.31
2018-04-20T09:51:03.542Z,33.53
2018-04-20T09:52:03.733Z,33.46
2018-04-20T09:53:03.915Z,33.31
2018-04-20T09:54:04.111Z,33.72
2018-04-20T09:55:04.300Z,34.17
2018-04-20T09:56:04.496Z,33.70
2018-04-20T09:57:04.678Z,32.57
2018-04-20T09:58:04.859Z,32.08
2018-04-20T09:59:05.055Z,32.48
2018-04-20T10:01:05.405Z,31.69
2018-04-20T10:02:05.619Z,33.69
2018-04-20T10:03:05.738Z,35.15
2018-04-20T10:04:05.982Z,34.31
2018-04-20T10:05:06.135Z,33.73
2018-04-20T10:06:06.357Z,32.87
2018-04-20T10:07:06.880Z,31.64
2018-04-20T10:08:06.644Z,30.77
2018-04-20T10:09:06.842Z,30.77
2018-04-20T10:10:07.034Z,29.22
2018-04-20T10:11:07.206Z,30.29
2018-04-20T10:12:07.384Z,30.00
2018-04-20T10:13:07.636Z,29.14
2018-04-20T10:14:07.810Z,29.14
2018-04-20T10:15:07.959Z,29.32
2018-04-20T10:16:08.134Z,29.52
2018-04-20T10:17:08.281Z,29.31
2018-04-20T10:18:09.090Z,30.29
2018-04-20T10:19:08.814Z,30.87
2018-04-20T10:20:08.841Z,29.83
2018-04-20T10:21:09.032Z,29.25
2018-04-20T10:22:09.227Z,29.14
2018-04-20T10:23:09.400Z,29.34
2018-04-20T10:24:09.588Z,29.44
2018-04-20T10:25:09.746Z,29.61
2018-04-20T10:26:09.937Z,28.96
2018-04-20T10:27:10.101Z,29.04
2018-04-20T10:28:10.290Z,29.16
2018-04-20T10:29:10.489Z,28.77
2018-04-20T10:30:10.640Z,29.71
2018-04-20T10:31:10.850Z,29.99
2018-04-20T10:32:10.989Z,30.38
2018-04-20T10:33:11.217Z,30.76
2018-04-20T10:34:11.694Z,30.68
2018-04-20T10:35:11.533Z,30.74
2018-04-20T10:36:11.715Z,30.76
2018-04-20T10:37:11.909Z,30.86
2018-04-20T10:38:12.090Z,30.65
2018-04-20T10:39:12.348Z,30.45
2018-04-20T10:40:12.501Z,29.30
2018-04-20T10:41:13.001Z,29.30
2018-04-20T10:42:12.832Z,28.43
2018-04-20T10:43:13.002Z,28.42
2018-04-20T10:44:13.229Z,28.89
2018-04-20T10:45:14.048Z,29.77
2018-04-20T10:46:13.588Z,30.83
2018-04-20T10:47:13.761Z,31.40
2018-04-20T10:48:13.969Z,32.63
2018-04-20T10:49:14.103Z,33.20
2018-04-20T10:50:14.318Z,33.22
2018-04-20T10:51:14.489Z,33.39
2018-04-20T10:52:14.653Z,33.39
2018-04-20T10:53:14.866Z,32.53
2018-04-20T10:54:15.059Z,31.67
2018-04-20T10:55:15.219Z,30.71
2018-04-20T10:56:15.380Z,31.30
2018-04-20T10:57:15.609Z,30.32
2018-04-20T10:58:15.867Z,30.13
2018-04-20T10:59:15.954Z,29.93
2018-04-20T11:00:16.142Z,29.36
2018-04-20T11:01:16.339Z,29.27
2018-04-20T11:02:16.563Z,29.75
2018-04-20T11:03:16.754Z,29.67
2018-04-20T11:04:16.921Z,29.95
2018-04-20T11:05:17.114Z,30.16
2018-04-20T11:06:17.303Z,30.15
2018-04-20T11:07:17.447Z,29.67
2018-04-20T11:08:17.656Z,29.77
2018-04-20T11:09:17.853Z,30.83
2018-04-20T11:10:18.029Z,31.41
2018-04-20T11:11:18.228Z,31.57
2018-04-20T11:12:18.634Z,32.06
2018-04-20T11:13:18.552Z,31.67
2018-04-20T11:14:18.760Z,31.38
2018-04-20T11:15:18.940Z,31.57
2018-04-20T11:16:19.124Z,30.91
2018-04-20T11:17:19.304Z,30.99
2018-04-20T11:18:19.457Z,31.01
2018-04-20T11:19:19.681Z,30.60
2018-04-20T11:20:19.828Z,30.90
2018-04-20T11:21:20.035Z,30.80
2018-04-20T11:22:20.370Z,30.80
2018-04-20T11:23:20.391Z,30.81
2018-04-20T11:24:20.571Z,30.42
2018-04-20T11:25:20.763Z,30.83
2018-04-20T11:26:21.117Z,29.85
2018-04-20T11:27:21.157Z,30.60
2018-04-20T11:28:21.312Z,30.42
2018-04-20T11:29:21.545Z,30.24
2018-04-20T11:30:21.785Z,30.52
2018-04-20T11:31:21.880Z,30.32
2018-04-20T11:32:22.121Z,29.85
2018-04-20T11:33:22.298Z,29.95
2018-04-20T11:34:22.427Z,30.22
2018-04-20T11:35:23.177Z,29.25
2018-04-20T11:36:23.651Z,29.33
2018-04-20T11:37:23.060Z,29.93
2018-04-20T11:38:23.264Z,29.93
2018-04-20T11:39:23.426Z,29.35
2018-04-20T11:40:23.632Z,28.97
2018-04-20T11:41:23.797Z,28.86
2018-04-20T11:42:24.141Z,29.35
2018-04-20T11:43:24.212Z,29.17
2018-04-20T11:44:24.410Z,29.07
2018-04-20T11:45:24.598Z,29.07
2018-04-20T11:46:24.748Z,29.15
2018-04-20T11:47:25.114Z,29.74
2018-04-20T11:48:25.337Z,29.64
2018-04-20T11:49:25.436Z,30.41
2018-04-20T11:50:25.556Z,30.51
2018-04-20T11:51:25.743Z,29.13
2018-04-20T11:52:26.073Z,28.83
2018-04-20T11:53:26.058Z,29.24
2018-04-20T11:54:26.290Z,28.85
2018-04-20T11:55:26.461Z,28.55
2018-04-20T11:56:26.617Z,28.45
2018-04-20T11:57:28.770Z,28.55
2018-04-20T11:58:27.475Z,28.36
2018-04-20T11:59:27.179Z,27.58
2018-04-20T12:00:27.352Z,26.01
2018-04-20T12:01:27.688Z,26.68
2018-04-20T12:02:29.751Z,26.87
2018-04-20T12:03:27.926Z,27.37
2018-04-20T12:04:28.103Z,27.76
2018-04-20T12:05:28.298Z,27.47
2018-04-20T12:06:28.484Z,28.83
2018-04-20T12:07:29.040Z,28.93
2018-04-20T12:08:28.833Z,30.08
2018-04-20T12:09:28.987Z,29.50
2018-04-20T12:10:29.169Z,28.92
2018-04-20T12:11:29.349Z,28.92
2018-04-20T12:12:29.520Z,27.55
2018-04-20T12:13:29.702Z,27.55
2018-04-20T12:14:30.585Z,27.66
2018-04-20T12:15:30.204Z,26.50
2018-04-20T12:16:30.550Z,27.84
2018-04-20T12:17:31.699Z,28.63
2018-04-20T12:18:31.003Z,29.78
2018-04-20T12:19:30.885Z,30.18
2018-04-20T12:20:31.066Z,29.91
2018-04-20T12:21:31.448Z,29.33
2018-04-20T12:22:31.424Z,28.85
2018-04-20T12:23:31.603Z,27.97
2018-04-20T12:24:31.771Z,27.79
2018-04-20T12:25:31.934Z,28.38
2018-04-20T12:26:32.123Z,27.48
2018-04-20T12:27:32.292Z,26.18
2018-04-20T12:28:32.477Z,27.61
2018-04-20T12:29:32.671Z,27.82
2018-04-20T12:30:32.855Z,28.22
2018-04-20T12:31:33.078Z,28.43
2018-04-20T12:32:33.225Z,27.94
2018-04-20T12:33:33.476Z,28.33
2018-04-20T12:34:33.572Z,28.05
2018-04-20T12:35:33.772Z,27.78
2018-04-20T12:36:33.976Z,27.28
2018-04-20T12:37:34.137Z,27.58
2018-04-20T12:38:34.340Z,26.41
2018-04-20T12:39:34.464Z,26.12
2018-04-20T12:40:34.694Z,26.12
2018-04-20T12:41:35.035Z,26.12
2018-04-20T12:42:35.140Z,26.52
2018-04-20T12:43:35.318Z,26.51
2018-04-20T12:44:35.458Z,26.41
2018-04-20T12:45:35.696Z,26.90
2018-04-20T12:46:35.815Z,24.94
2018-04-20T12:47:36.001Z,25.51
2018-04-20T12:48:36.218Z,25.02
2018-04-20T12:49:36.342Z,25.01
2018-04-20T12:50:36.530Z,26.37
2018-04-20T12:51:36.730Z,26.65
2018-04-20T12:52:36.888Z,27.23
2018-04-20T12:53:37.159Z,27.51
2018-04-20T12:54:37.262Z,27.62
2018-04-20T12:55:37.468Z,27.82
2018-04-20T12:56:37.663Z,27.44
2018-04-20T12:57:37.830Z,27.55
2018-04-20T12:58:38.026Z,27.37
2018-04-20T12:59:38.261Z,27.66
2018-04-20T13:00:38.423Z,27.76
2018-04-20T13:01:38.593Z,26.69
2018-04-20T13:02:38.788Z,26.59
2018-04-20T13:03:38.981Z,26.59
2018-04-20T13:04:39.134Z,26.40
2018-04-20T13:05:39.321Z,24.63
2018-04-20T13:06:39.453Z,25.21
2018-04-20T13:07:40.603Z,24.63